Terminal Aerodrome Forecast
Issued by NWS Shreveport, LA

Home | Current Version | Previous Version | Text Only | Print | Product List | Glossary On
Versions: 1 2 3 4 5 6 7 8 9 10 11 12 13 14 15 16
259
FTUS44 KSHV 181135
TAFSHV
TAF
KSHV 181135Z 1812/1912 20006KT P6SM SCT070 BKN250
     FM181500 25009KT P6SM SCT050 BKN150 BKN250
     FM190000 20003KT P6SM SCT250=

USA.gov is the U.S. government's official web portal to all federal, state and local government web resources and services.